METAR Data
IDs: Format: Raw Decoded Include TAF

Data at: 1626 UTC 19 Sep 2018

METAR for:KVRB (Vero Beach Muni, FL, US)
Text:KVRB 191621Z VRB04KT 10SM FEW039 32/20 A2998 RMK AO2 T03220200
Temperature: 32.2°C ( 90°F)
Dewpoint: 20.0°C ( 68°F) [RH = 49%]
Pressure (altimeter):29.98 inches Hg (1015.3 mb)
Winds:variable direction winds at 5 MPH (4 knots; 2.1 m/s)
Visibility:10 or more sm (16+ km)
Ceiling:at least 12,000 feet AGL
Clouds: few clouds at 3900 feet AGL